Time,TemperatureF,DewpointF,PressureIn,WindDirection,WindDirectionDegrees,WindSpeedMPH,WindSpeedGustMPH,Humidity,HourlyPrecipIn,Conditions,Clouds,dailyrainin,SoftwareType,DateUTC
2013-08-24 00:02:00,57.5,53.3,30.16,East,84,0.0,2.0,86,0.00,,,0.00,WUHU216DAVISVP2,2013-08-24 04:02:00,
2013-08-24 00:07:00,57.4,53.5,30.16,East,84,0.0,2.0,87,0.00,,,0.00,WUHU216DAVISVP2,2013-08-24 04:07:00,
2013-08-24 00:12:00,57.4,53.5,30.16,East,84,0.0,2.0,87,0.00,,,0.00,WUHU216DAVISVP2,2013-08-24 04:12:00,
2013-08-24 00:17:00,57.3,53.8,30.16,East,84,0.0,0.0,88,0.00,,,0.00,WUHU216DAVISVP2,2013-08-24 04:17:00,
2013-08-24 00:22:00,57.2,53.7,30.17,East,84,0.0,0.0,88,0.00,,,0.00,WUHU216DAVISVP2,2013-08-24 04:22:00,
2013-08-24 00:27:00,57.3,53.8,30.17,East,84,0.0,0.0,88,0.00,,,0.00,WUHU216DAVISVP2,2013-08-24 04:27:00,
2013-08-24 00:32:00,57.5,54.0,30.17,East,84,0.0,0.0,88,0.00,,,0.00,WUHU216DAVISVP2,2013-08-24 04:32:00,
2013-08-24 00:37:00,57.6,53.7,30.17,East,84,0.0,0.0,87,0.00,,,0.00,WUHU216DAVISVP2,2013-08-24 04:37:00,
2013-08-24 00:42:00,57.7,53.8,30.17,East,84,0.0,0.0,87,0.00,,,0.00,WUHU216DAVISVP2,2013-08-24 04:42:00,
2013-08-24 00:47:00,57.7,54.2,30.17,East,84,0.0,0.0,88,0.00,,,0.00,WUHU216DAVISVP2,2013-08-24 04:47:00,
2013-08-24 00:52:00,57.7,54.2,30.17,East,84,0.0,0.0,88,0.00,,,0.00,WUHU216DAVISVP2,2013-08-24 04:52:00,
2013-08-24 00:58:00,57.6,54.4,30.17,East,84,0.0,0.0,89,0.00,,,0.00,WUHU216DAVISVP2,2013-08-24 04:58:00,
2013-08-24 01:03:00,57.4,54.2,30.17,East,84,0.0,0.0,89,0.00,,,0.00,WUHU216DAVISVP2,2013-08-24 05:03:00,
2013-08-24 01:08:00,57.2,54.0,30.17,East,84,0.0,0.0,89,0.00,,,0.00,WUHU216DAVISVP2,2013-08-24 05:08:00,
2013-08-24 01:13:00,57.1,53.9,30.17,East,84,0.0,0.0,89,0.00,,,0.00,WUHU216DAVISVP2,2013-08-24 05:13:00,
2013-08-24 01:18:00,56.9,54.0,30.17,East,84,0.0,0.0,90,0.00,,,0.00,WUHU216DAVISVP2,2013-08-24 05:18:00,
2013-08-24 01:23:00,56.9,54.0,30.17,East,84,0.0,0.0,90,0.00,,,0.00,WUHU216DAVISVP2,2013-08-24 05:23:00,
2013-08-24 01:28:00,56.7,53.8,30.17,East,84,0.0,0.0,90,0.00,,,0.00,WUHU216DAVISVP2,2013-08-24 05:28:00,
2013-08-24 01:33:00,56.4,53.5,30.17,East,84,0.0,0.0,90,0.00,,,0.00,WUHU216DAVISVP2,2013-08-24 05:33:00,
2013-08-24 01:38:00,56.0,53.4,30.17,East,84,0.0,0.0,91,0.00,,,0.00,WUHU216DAVISVP2,2013-08-24 05:38:00,
2013-08-24 01:43:00,55.9,53.3,30.17,East,84,0.0,0.0,91,0.00,,,0.00,WUHU216DAVISVP2,2013-08-24 05:43:00,
2013-08-24 01:48:00,55.7,53.4,30.17,East,84,0.0,0.0,92,0.00,,,0.00,WUHU216DAVISVP2,2013-08-24 05:48:00,
2013-08-24 01:53:00,55.6,53.3,30.17,East,84,0.0,0.0,92,0.00,,,0.00,WUHU216DAVISVP2,2013-08-24 05:53:00,
2013-08-24 01:58:00,55.7,53.7,30.17,East,84,0.0,0.0,93,0.00,,,0.00,WUHU216DAVISVP2,2013-08-24 05:58:00,
2013-08-24 02:03:00,55.9,53.9,30.18,North,351,3.0,4.0,93,0.00,,,0.00,WUHU216DAVISVP2,2013-08-24 06:03:00,
2013-08-24 02:08:00,57.4,54.2,30.17,NNW,335,0.0,6.0,89,0.00,,,0.00,WUHU216DAVISVP2,2013-08-24 06:08:00,
2013-08-24 02:13:00,58.2,54.3,30.18,NE,39,0.0,6.0,87,0.00,,,0.00,WUHU216DAVISVP2,2013-08-24 06:13:00,
2013-08-24 02:18:00,59.1,54.0,30.18,North,355,4.0,6.0,83,0.00,,,0.00,WUHU216DAVISVP2,2013-08-24 06:18:00,
2013-08-24 02:24:00,59.7,53.6,30.18,North,5,2.0,6.0,80,0.00,,,0.00,WUHU216DAVISVP2,2013-08-24 06:24:00,
2013-08-24 02:29:00,59.9,53.8,30.18,NNW,342,0.0,6.0,80,0.00,,,0.00,WUHU216DAVISVP2,2013-08-24 06:29:00,
2013-08-24 02:34:00,60.0,53.5,30.18,NNW,342,0.0,6.0,79,0.00,,,0.00,WUHU216DAVISVP2,2013-08-24 06:34:00,
2013-08-24 02:39:00,60.0,53.9,30.18,NNW,342,4.0,5.0,80,0.00,,,0.00,WUHU216DAVISVP2,2013-08-24 06:39:00,
2013-08-24 02:44:00,60.1,54.0,30.18,NNW,344,0.0,4.0,80,0.00,,,0.00,WUHU216DAVISVP2,2013-08-24 06:44:00,
2013-08-24 02:49:00,60.1,54.0,30.19,NNW,344,0.0,4.0,80,0.00,,,0.00,WUHU216DAVISVP2,2013-08-24 06:49:00,
2013-08-24 02:54:00,60.1,54.0,30.19,NNW,344,0.0,4.0,80,0.00,,,0.00,WUHU216DAVISVP2,2013-08-24 06:54:00,
2013-08-24 02:59:00,60.0,54.2,30.19,NNW,344,0.0,4.0,81,0.00,,,0.00,WUHU216DAVISVP2,2013-08-24 06:59:00,
2013-08-24 03:04:00,60.1,54.3,30.19,NNW,344,1.0,2.0,81,0.00,,,0.00,WUHU216DAVISVP2,2013-08-24 07:04:00,
2013-08-24 03:09:00,60.1,54.3,30.19,NNW,344,0.0,2.0,81,0.00,,,0.00,WUHU216DAVISVP2,2013-08-24 07:09:00,
2013-08-24 03:14:00,60.2,54.4,30.19,NNW,344,0.0,4.0,81,0.00,,,0.00,WUHU216DAVISVP2,2013-08-24 07:14:00,
2013-08-24 03:19:00,60.3,54.5,30.19,NNW,344,0.0,4.0,81,0.00,,,0.00,WUHU216DAVISVP2,2013-08-24 07:19:00,
2013-08-24 03:24:00,60.1,54.6,30.19,NNW,344,2.0,4.0,82,0.00,,,0.00,WUHU216DAVISVP2,2013-08-24 07:24:00,
2013-08-24 03:29:00,60.0,54.5,30.19,NNW,344,0.0,4.0,82,0.00,,,0.00,WUHU216DAVISVP2,2013-08-24 07:29:00,
2013-08-24 03:34:00,59.8,54.3,30.19,NNW,344,2.0,4.0,82,0.00,,,0.00,WUHU216DAVISVP2,2013-08-24 07:34:00,
2013-08-24 03:40:00,59.7,54.6,30.19,NNW,344,0.0,4.0,83,0.00,,,0.00,WUHU216DAVISVP2,2013-08-24 07:40:00,
2013-08-24 03:45:00,59.7,54.9,30.19,NNW,344,0.0,4.0,84,0.00,,,0.00,WUHU216DAVISVP2,2013-08-24 07:45:00,
2013-08-24 03:50:00,59.7,55.2,30.20,NNW,344,0.0,4.0,85,0.00,,,0.00,WUHU216DAVISVP2,2013-08-24 07:50:00,
2013-08-24 03:55:00,59.7,55.5,30.20,NNW,344,0.0,2.0,86,0.00,,,0.00,WUHU216DAVISVP2,2013-08-24 07:55:00,
2013-08-24 04:00:00,59.5,55.3,30.20,NNW,344,2.0,2.0,86,0.00,,,0.00,WUHU216DAVISVP2,2013-08-24 08:00:00,
2013-08-24 04:05:00,59.4,55.5,30.20,NNW,344,2.0,2.0,87,0.00,,,0.00,WUHU216DAVISVP2,2013-08-24 08:05:00,
2013-08-24 04:10:00,59.3,55.7,30.20,NNW,344,1.0,2.0,88,0.00,,,0.00,WUHU216DAVISVP2,2013-08-24 08:10:00,
2013-08-24 04:15:00,59.4,55.8,30.20,NNW,344,0.0,2.0,88,0.00,,,0.00,WUHU216DAVISVP2,2013-08-24 08:15:00,
2013-08-24 04:20:00,59.3,55.7,30.20,NNW,344,1.0,2.0,88,0.00,,,0.00,WUHU216DAVISVP2,2013-08-24 08:20:00,
2013-08-24 04:25:00,59.3,56.0,30.20,NNW,344,0.0,2.0,89,0.00,,,0.00,WUHU216DAVISVP2,2013-08-24 08:25:00,
2013-08-24 04:30:00,59.1,55.8,30.20,NNW,344,0.0,2.0,89,0.00,,,0.00,WUHU216DAVISVP2,2013-08-24 08:30:00,
2013-08-24 04:35:00,59.1,56.1,30.20,NNW,344,0.0,2.0,90,0.00,,,0.00,WUHU216DAVISVP2,2013-08-24 08:35:00,
2013-08-24 04:40:00,59.0,56.0,30.21,NNW,344,0.0,2.0,90,0.00,,,0.00,WUHU216DAVISVP2,2013-08-24 08:40:00,
2013-08-24 04:45:00,58.9,56.2,30.21,NNW,344,0.0,1.0,91,0.00,,,0.00,WUHU216DAVISVP2,2013-08-24 08:45:00,
2013-08-24 04:50:00,58.9,56.2,30.21,NNW,344,0.0,1.0,91,0.00,,,0.00,WUHU216DAVISVP2,2013-08-24 08:50:00,
2013-08-24 04:55:00,58.9,56.5,30.21,NNW,344,0.0,1.0,92,0.00,,,0.00,WUHU216DAVISVP2,2013-08-24 08:55:00,
2013-08-24 05:01:00,58.9,56.5,30.21,NNW,344,0.0,1.0,92,0.00,,,0.00,WUHU216DAVISVP2,2013-08-24 09:01:00,
2013-08-24 05:06:00,59.0,56.6,30.21,NNW,344,1.0,2.0,92,0.00,,,0.00,WUHU216DAVISVP2,2013-08-24 09:06:00,
2013-08-24 05:11:00,59.1,56.7,30.21,NNW,344,0.0,2.0,92,0.00,,,0.00,WUHU216DAVISVP2,2013-08-24 09:11:00,
2013-08-24 05:16:00,59.1,56.7,30.21,NNW,344,0.0,2.0,92,0.00,,,0.00,WUHU216DAVISVP2,2013-08-24 09:16:00,
2013-08-24 05:21:00,59.1,56.7,30.22,NNW,344,0.0,2.0,92,0.00,,,0.00,WUHU216DAVISVP2,2013-08-24 09:21:00,
2013-08-24 05:26:00,59.0,56.6,30.22,NNW,344,0.0,2.0,92,0.00,,,0.00,WUHU216DAVISVP2,2013-08-24 09:26:00,
2013-08-24 05:31:00,58.7,56.3,30.22,NNW,344,0.0,1.0,92,0.00,,,0.00,WUHU216DAVISVP2,2013-08-24 09:31:00,
2013-08-24 05:36:00,58.6,56.2,30.22,NNW,344,0.0,1.0,92,0.00,,,0.00,WUHU216DAVISVP2,2013-08-24 09:36:00,
2013-08-24 05:41:00,58.3,55.9,30.22,NNW,344,0.0,1.0,92,0.00,,,0.00,WUHU216DAVISVP2,2013-08-24 09:41:00,
2013-08-24 05:46:00,58.0,55.7,30.22,NNW,344,0.0,0.0,92,0.00,,,0.00,WUHU216DAVISVP2,2013-08-24 09:46:00,
2013-08-24 05:51:00,57.6,55.3,30.23,NNW,344,0.0,0.0,92,0.00,,,0.00,WUHU216DAVISVP2,2013-08-24 09:51:00,
2013-08-24 05:56:00,57.2,55.2,30.23,NNW,344,0.0,0.0,93,0.00,,,0.00,WUHU216DAVISVP2,2013-08-24 09:56:00,
2013-08-24 06:01:00,57.5,56.0,30.23,NNW,344,0.0,1.0,95,0.00,,,0.00,WUHU216DAVISVP2,2013-08-24 10:01:00,
2013-08-24 06:06:00,57.8,56.3,30.23,NNW,344,0.0,1.0,95,0.00,,,0.00,WUHU216DAVISVP2,2013-08-24 10:06:00,
2013-08-24 06:11:00,58.0,56.5,30.23,NNW,344,1.0,2.0,95,0.00,,,0.00,WUHU216DAVISVP2,2013-08-24 10:11:00,
2013-08-24 06:16:00,58.2,56.7,30.23,NNW,344,0.0,2.0,95,0.00,,,0.00,WUHU216DAVISVP2,2013-08-24 10:16:00,
2013-08-24 06:22:00,58.2,56.7,30.23,NNW,344,0.0,2.0,95,0.00,,,0.00,WUHU216DAVISVP2,2013-08-24 10:22:00,
2013-08-24 06:27:00,58.3,56.5,30.24,NNW,344,2.0,4.0,94,0.00,,,0.00,WUHU216DAVISVP2,2013-08-24 10:27:00,
2013-08-24 06:32:00,58.2,56.4,30.24,NNW,344,0.0,4.0,94,0.00,,,0.00,WUHU216DAVISVP2,2013-08-24 10:32:00,
2013-08-24 06:37:00,58.0,55.9,30.24,NNW,344,1.0,4.0,93,0.00,,,0.00,WUHU216DAVISVP2,2013-08-24 10:37:00,
2013-08-24 06:42:00,57.8,56.0,30.24,NNW,344,0.0,4.0,94,0.00,,,0.00,WUHU216DAVISVP2,2013-08-24 10:42:00,
2013-08-24 06:47:00,57.4,55.4,30.25,NNW,344,0.0,4.0,93,0.00,,,0.00,WUHU216DAVISVP2,2013-08-24 10:47:00,
2013-08-24 06:52:00,56.8,54.8,30.25,NNW,344,0.0,1.0,93,0.00,,,0.00,WUHU216DAVISVP2,2013-08-24 10:52:00,
2013-08-24 06:57:00,56.6,54.9,30.25,NNW,344,0.0,1.0,94,0.00,,,0.00,WUHU216DAVISVP2,2013-08-24 10:57:00,
2013-08-24 07:02:00,56.3,54.8,30.25,NNW,344,0.0,0.0,95,0.00,,,0.00,WUHU216DAVISVP2,2013-08-24 11:02:00,
2013-08-24 07:07:00,56.2,54.7,30.26,NNW,344,0.0,0.0,95,0.00,,,0.00,WUHU216DAVISVP2,2013-08-24 11:07:00,
2013-08-24 07:12:00,56.1,54.6,30.26,NNW,344,0.0,0.0,95,0.00,,,0.00,WUHU216DAVISVP2,2013-08-24 11:12:00,
2013-08-24 07:17:00,55.9,54.5,30.26,NNW,344,0.0,0.0,95,0.00,,,0.00,WUHU216DAVISVP2,2013-08-24 11:17:00,
2013-08-24 07:22:00,55.5,54.1,30.26,NNW,344,0.0,0.0,95,0.00,,,0.00,WUHU216DAVISVP2,2013-08-24 11:22:00,
2013-08-24 07:27:00,55.4,54.2,30.26,NNW,344,0.0,0.0,96,0.00,,,0.00,WUHU216DAVISVP2,2013-08-24 11:27:00,
2013-08-24 07:32:00,55.4,54.2,30.27,NNW,344,0.0,0.0,96,0.00,,,0.00,WUHU216DAVISVP2,2013-08-24 11:32:00,
2013-08-24 07:37:00,55.5,54.3,30.27,NNW,344,0.0,0.0,96,0.00,,,0.00,WUHU216DAVISVP2,2013-08-24 11:37:00,
2013-08-24 07:42:00,55.7,54.5,30.27,NNW,344,0.0,0.0,96,0.00,,,0.00,WUHU216DAVISVP2,2013-08-24 11:42:00,
2013-08-24 07:47:00,56.1,55.2,30.27,NNW,344,0.0,1.0,97,0.00,,,0.00,WUHU216DAVISVP2,2013-08-24 11:47:00,
2013-08-24 07:53:00,56.8,55.9,30.27,NNW,344,0.0,1.0,97,0.00,,,0.00,WUHU216DAVISVP2,2013-08-24 11:53:00,
2013-08-24 07:58:00,57.1,56.2,30.27,NNW,344,0.0,1.0,97,0.00,,,0.00,WUHU216DAVISVP2,2013-08-24 11:58:00,
2013-08-24 08:03:00,58.1,57.5,30.27,NNW,344,2.0,4.0,98,0.00,,,0.00,WUHU216DAVISVP2,2013-08-24 12:03:00,
2013-08-24 08:08:00,58.9,58.0,30.27,NNW,344,3.0,4.0,97,0.00,,,0.00,WUHU216DAVISVP2,2013-08-24 12:08:00,
2013-08-24 08:13:00,59.5,58.0,30.28,NNW,344,1.0,5.0,95,0.00,,,0.00,WUHU216DAVISVP2,2013-08-24 12:13:00,
2013-08-24 08:18:00,60.0,58.2,30.27,NNW,344,2.0,5.0,94,0.00,,,0.00,WUHU216DAVISVP2,2013-08-24 12:18:00,
2013-08-24 08:23:00,60.4,58.3,30.28,NNW,344,1.0,5.0,93,0.00,,,0.00,WUHU216DAVISVP2,2013-08-24 12:23:00,
2013-08-24 08:28:00,61.0,58.9,30.28,NNW,344,1.0,5.0,93,0.00,,,0.00,WUHU216DAVISVP2,2013-08-24 12:28:00,
2013-08-24 08:33:00,61.5,59.4,30.28,NNW,344,2.0,5.0,93,0.00,,,0.00,WUHU216DAVISVP2,2013-08-24 12:33:00,
2013-08-24 08:38:00,62.0,59.6,30.28,NNW,344,1.0,5.0,92,0.00,,,0.00,WUHU216DAVISVP2,2013-08-24 12:38:00,
2013-08-24 08:43:00,62.6,60.2,30.28,NNW,344,0.0,5.0,92,0.00,,,0.00,WUHU216DAVISVP2,2013-08-24 12:43:00,
2013-08-24 08:48:00,63.2,60.8,30.28,NNW,344,0.0,5.0,92,0.00,,,0.00,WUHU216DAVISVP2,2013-08-24 12:48:00,
2013-08-24 08:53:00,64.0,61.6,30.28,NNW,344,0.0,4.0,92,0.00,,,0.00,WUHU216DAVISVP2,2013-08-24 12:53:00,
2013-08-24 08:58:00,64.6,61.6,30.28,NNW,344,0.0,2.0,90,0.00,,,0.00,WUHU216DAVISVP2,2013-08-24 12:58:00,
2013-08-24 09:03:00,65.2,61.9,30.28,NNW,344,2.0,2.0,89,0.00,,,0.00,WUHU216DAVISVP2,2013-08-24 13:03:00,
2013-08-24 09:08:00,65.4,62.1,30.29,North,9,3.0,4.0,89,0.00,,,0.00,WUHU216DAVISVP2,2013-08-24 13:08:00,
2013-08-24 09:13:00,65.4,62.1,30.29,NE,49,0.0,5.0,89,0.00,,,0.00,WUHU216DAVISVP2,2013-08-24 13:13:00,
2013-08-24 09:19:00,65.8,62.8,30.29,NNE,31,0.0,5.0,90,0.00,,,0.00,WUHU216DAVISVP2,2013-08-24 13:19:00,
2013-08-24 09:24:00,66.2,62.8,30.29,East,79,1.0,6.0,89,0.00,,,0.00,WUHU216DAVISVP2,2013-08-24 13:24:00,
2013-08-24 09:29:00,66.8,63.4,30.29,North,5,2.0,6.0,89,0.00,,,0.00,WUHU216DAVISVP2,2013-08-24 13:29:00,
2013-08-24 09:34:00,67.1,63.7,30.29,NE,35,2.0,6.0,89,0.00,,,0.00,WUHU216DAVISVP2,2013-08-24 13:34:00,
2013-08-24 09:39:00,67.4,64.0,30.29,East,96,1.0,7.0,89,0.00,,,0.00,WUHU216DAVISVP2,2013-08-24 13:39:00,
2013-08-24 09:44:00,67.8,64.1,30.29,NNE,15,0.0,7.0,88,0.00,,,0.00,WUHU216DAVISVP2,2013-08-24 13:44:00,
2013-08-24 09:49:00,67.9,63.9,30.29,ENE,77,2.0,7.0,87,0.00,,,0.00,WUHU216DAVISVP2,2013-08-24 13:49:00,
2013-08-24 09:54:00,68.1,64.4,30.29,ENE,61,0.0,7.0,88,0.00,,,0.00,WUHU216DAVISVP2,2013-08-24 13:54:00,
2013-08-24 09:59:00,68.6,64.6,30.29,NE,37,4.0,7.0,87,0.00,,,0.00,WUHU216DAVISVP2,2013-08-24 13:59:00,
2013-08-24 10:04:00,68.9,64.9,30.29,ENE,74,0.0,7.0,87,0.00,,,0.00,WUHU216DAVISVP2,2013-08-24 14:04:00,
2013-08-24 10:09:00,69.4,64.7,30.29,NNE,22,5.0,7.0,85,0.00,,,0.00,WUHU216DAVISVP2,2013-08-24 14:09:00,
2013-08-24 10:14:00,69.6,64.9,30.29,East,101,5.0,7.0,85,0.00,,,0.00,WUHU216DAVISVP2,2013-08-24 14:14:00,
2013-08-24 10:19:00,70.1,64.7,30.29,East,86,0.0,7.0,83,0.00,,,0.00,WUHU216DAVISVP2,2013-08-24 14:19:00,
2013-08-24 10:24:00,70.7,64.3,30.29,NE,55,4.0,7.0,80,0.00,,,0.00,WUHU216DAVISVP2,2013-08-24 14:24:00,
2013-08-24 10:29:00,70.8,64.1,30.29,NE,54,6.0,7.0,79,0.00,,,0.00,WUHU216DAVISVP2,2013-08-24 14:29:00,
2013-08-24 10:34:00,71.0,63.2,30.29,ENE,57,3.0,7.0,76,0.00,,,0.00,WUHU216DAVISVP2,2013-08-24 14:34:00,
2013-08-24 10:39:00,71.3,63.5,30.29,East,86,5.0,7.0,76,0.00,,,0.00,WUHU216DAVISVP2,2013-08-24 14:39:00,
2013-08-24 10:45:00,71.6,61.5,30.29,NNE,20,7.0,8.0,70,0.00,,,0.00,WUHU216DAVISVP2,2013-08-24 14:45:00,
2013-08-24 10:50:00,71.8,62.1,30.29,East,88,7.0,8.0,71,0.00,,,0.00,WUHU216DAVISVP2,2013-08-24 14:50:00,
2013-08-24 10:55:00,72.3,60.9,30.29,East,98,4.0,8.0,67,0.00,,,0.00,WUHU216DAVISVP2,2013-08-24 14:55:00,
2013-08-24 11:00:00,72.8,61.0,30.29,NE,56,5.0,9.0,66,0.00,,,0.00,WUHU216DAVISVP2,2013-08-24 15:00:00,
2013-08-24 11:05:00,73.1,61.7,30.29,ESE,107,2.0,9.0,67,0.00,,,0.00,WUHU216DAVISVP2,2013-08-24 15:05:00,
2013-08-24 11:10:00,73.6,61.3,30.29,NE,43,4.0,9.0,65,0.00,,,0.00,WUHU216DAVISVP2,2013-08-24 15:10:00,
2013-08-24 11:15:00,74.2,60.8,30.29,ESE,121,2.0,9.0,63,0.00,,,0.00,WUHU216DAVISVP2,2013-08-24 15:15:00,
2013-08-24 11:20:00,74.8,59.5,30.29,East,92,7.0,9.0,59,0.00,,,0.00,WUHU216DAVISVP2,2013-08-24 15:20:00,
2013-08-24 11:25:00,74.8,59.7,30.28,East,83,6.0,9.0,59,0.00,,,0.00,WUHU216DAVISVP2,2013-08-24 15:25:00,
2013-08-24 11:30:00,74.9,59.8,30.28,ESE,117,1.0,9.0,59,0.00,,,0.00,WUHU216DAVISVP2,2013-08-24 15:30:00,
2013-08-24 11:35:00,74.9,59.3,30.28,East,82,8.0,12.0,58,0.00,,,0.00,WUHU216DAVISVP2,2013-08-24 15:35:00,
2013-08-24 11:40:00,75.1,58.5,30.29,East,85,3.0,12.0,56,0.00,,,0.00,WUHU216DAVISVP2,2013-08-24 15:40:00,
2013-08-24 11:45:00,75.3,59.2,30.28,East,93,6.0,12.0,57,0.00,,,0.00,WUHU216DAVISVP2,2013-08-24 15:45:00,
2013-08-24 11:50:00,75.6,59.8,30.28,NNE,23,1.0,12.0,58,0.00,,,0.00,WUHU216DAVISVP2,2013-08-24 15:50:00,
2013-08-24 11:55:00,76.0,59.3,30.28,East,79,8.0,10.0,56,0.00,,,0.00,WUHU216DAVISVP2,2013-08-24 15:55:00,
2013-08-24 12:00:00,75.8,59.2,30.28,East,86,6.0,11.0,56,0.00,,,0.00,WUHU216DAVISVP2,2013-08-24 16:00:00,
2013-08-24 12:05:00,75.9,59.8,30.28,NE,38,9.0,11.0,57,0.00,,,0.00,WUHU216DAVISVP2,2013-08-24 16:05:00,
2013-08-24 12:11:00,76.0,58.8,30.28,NE,46,6.0,11.0,55,0.00,,,0.00,WUHU216DAVISVP2,2013-08-24 16:11:00,
2013-08-24 12:16:00,76.1,57.9,30.27,East,90,4.0,11.0,53,0.00,,,0.00,WUHU216DAVISVP2,2013-08-24 16:16:00,
2013-08-24 12:21:00,76.2,57.3,30.27,NE,41,8.0,12.0,52,0.00,,,0.00,WUHU216DAVISVP2,2013-08-24 16:21:00,
2013-08-24 12:26:00,76.3,58.6,30.27,East,98,4.0,12.0,54,0.00,,,0.00,WUHU216DAVISVP2,2013-08-24 16:26:00,
2013-08-24 12:31:00,76.5,57.6,30.27,East,82,6.0,14.0,52,0.00,,,0.00,WUHU216DAVISVP2,2013-08-24 16:31:00,
2013-08-24 12:36:00,76.7,58.3,30.27,SE,127,6.0,14.0,53,0.00,,,0.00,WUHU216DAVISVP2,2013-08-24 16:36:00,
2013-08-24 12:41:00,77.1,58.1,30.27,East,85,6.0,14.0,52,0.00,,,0.00,WUHU216DAVISVP2,2013-08-24 16:41:00,
2013-08-24 12:46:00,77.5,57.5,30.27,WSW,246,0.0,11.0,50,0.00,,,0.00,WUHU216DAVISVP2,2013-08-24 16:46:00,
2013-08-24 12:51:00,77.6,57.0,30.27,East,92,1.0,11.0,49,0.00,,,0.00,WUHU216DAVISVP2,2013-08-24 16:51:00,
2013-08-24 12:56:00,77.3,56.1,30.27,NE,46,10.0,11.0,48,0.00,,,0.00,WUHU216DAVISVP2,2013-08-24 16:56:00,
2013-08-24 13:01:00,77.4,57.4,30.26,NNE,27,8.0,11.0,50,0.00,,,0.00,WUHU216DAVISVP2,2013-08-24 17:01:00,
2013-08-24 13:06:00,77.8,58.9,30.26,East,83,5.0,11.0,52,0.00,,,0.00,WUHU216DAVISVP2,2013-08-24 17:06:00,
2013-08-24 13:11:00,77.8,57.7,30.26,ENE,61,5.0,15.0,50,0.00,,,0.00,WUHU216DAVISVP2,2013-08-24 17:11:00,
2013-08-24 13:16:00,77.6,57.5,30.26,East,84,10.0,15.0,50,0.00,,,0.00,WUHU216DAVISVP2,2013-08-24 17:16:00,
2013-08-24 13:21:00,77.4,56.8,30.26,ESE,105,6.0,15.0,49,0.00,,,0.00,WUHU216DAVISVP2,2013-08-24 17:21:00,
2013-08-24 13:26:00,77.5,56.3,30.26,ENE,69,4.0,15.0,48,0.00,,,0.00,WUHU216DAVISVP2,2013-08-24 17:26:00,
2013-08-24 13:31:00,77.6,57.6,30.25,NNE,25,0.0,14.0,50,0.00,,,0.00,WUHU216DAVISVP2,2013-08-24 17:31:00,
2013-08-24 13:37:00,77.6,56.4,30.26,East,79,6.0,19.0,48,0.00,,,0.00,WUHU216DAVISVP2,2013-08-24 17:37:00,
2013-08-24 13:42:00,77.6,55.8,30.26,ENE,76,5.0,19.0,47,0.00,,,0.00,WUHU216DAVISVP2,2013-08-24 17:42:00,
2013-08-24 13:47:00,77.7,56.4,30.26,East,101,6.0,19.0,48,0.00,,,0.00,WUHU216DAVISVP2,2013-08-24 17:47:00,
2013-08-24 13:52:00,77.9,56.7,30.25,East,95,12.0,19.0,48,0.00,,,0.00,WUHU216DAVISVP2,2013-08-24 17:52:00,
2013-08-24 13:57:00,78.0,56.1,30.26,ESE,103,7.0,13.0,47,0.00,,,0.00,WUHU216DAVISVP2,2013-08-24 17:57:00,
2013-08-24 14:02:00,78.3,56.4,30.25,ENE,65,8.0,13.0,47,0.00,,,0.00,WUHU216DAVISVP2,2013-08-24 18:02:00,
2013-08-24 14:07:00,78.4,57.2,30.26,NNE,13,5.0,13.0,48,0.00,,,0.00,WUHU216DAVISVP2,2013-08-24 18:07:00,
2013-08-24 14:12:00,78.4,57.1,30.25,East,85,6.0,12.0,48,0.00,,,0.00,WUHU216DAVISVP2,2013-08-24 18:12:00,
2013-08-24 14:17:00,78.7,58.0,30.26,ENE,70,7.0,12.0,49,0.00,,,0.00,WUHU216DAVISVP2,2013-08-24 18:17:00,
2013-08-24 14:22:00,78.5,55.4,30.25,NNE,30,9.0,10.0,45,0.00,,,0.00,WUHU216DAVISVP2,2013-08-24 18:22:00,
2013-08-24 14:27:00,78.6,57.9,30.26,East,99,5.0,13.0,49,0.00,,,0.00,WUHU216DAVISVP2,2013-08-24 18:27:00,
2013-08-24 14:32:00,78.6,56.7,30.25,ESE,107,5.0,13.0,47,0.00,,,0.00,WUHU216DAVISVP2,2013-08-24 18:32:00,
2013-08-24 14:37:00,78.8,57.5,30.25,East,92,1.0,13.0,48,0.00,,,0.00,WUHU216DAVISVP2,2013-08-24 18:37:00,
2013-08-24 14:42:00,79.0,57.7,30.25,NE,41,3.0,13.0,48,0.00,,,0.00,WUHU216DAVISVP2,2013-08-24 18:42:00,
2013-08-24 14:47:00,78.7,57.4,30.25,ENE,62,8.0,12.0,48,0.00,,,0.00,WUHU216DAVISVP2,2013-08-24 18:47:00,
2013-08-24 14:52:00,78.8,56.9,30.25,ENE,77,2.0,12.0,47,0.00,,,0.00,WUHU216DAVISVP2,2013-08-24 18:52:00,
2013-08-24 14:57:00,79.1,56.6,30.25,NNE,24,4.0,12.0,46,0.00,,,0.00,WUHU216DAVISVP2,2013-08-24 18:57:00,
2013-08-24 15:03:00,79.1,57.8,30.25,NNW,344,3.0,12.0,48,0.00,,,0.00,WUHU216DAVISVP2,2013-08-24 19:03:00,
2013-08-24 15:08:00,79.1,58.4,30.25,NE,42,6.0,10.0,49,0.00,,,0.00,WUHU216DAVISVP2,2013-08-24 19:08:00,
2013-08-24 15:13:00,79.3,58.5,30.25,NNW,348,2.0,10.0,49,0.00,,,0.00,WUHU216DAVISVP2,2013-08-24 19:13:00,
2013-08-24 15:18:00,79.4,57.4,30.25,NE,53,1.0,10.0,47,0.00,,,0.00,WUHU216DAVISVP2,2013-08-24 19:18:00,
2013-08-24 15:23:00,79.4,58.0,30.25,NE,52,0.0,10.0,48,0.00,,,0.00,WUHU216DAVISVP2,2013-08-24 19:23:00,
2013-08-24 15:28:00,79.2,57.9,30.24,East,85,6.0,12.0,48,0.00,,,0.00,WUHU216DAVISVP2,2013-08-24 19:28:00,
2013-08-24 15:33:00,79.1,57.8,30.24,ENE,63,2.0,12.0,48,0.00,,,0.00,WUHU216DAVISVP2,2013-08-24 19:33:00,
2013-08-24 15:38:00,79.4,56.9,30.24,NE,45,8.0,12.0,46,0.00,,,0.00,WUHU216DAVISVP2,2013-08-24 19:38:00,
2013-08-24 15:43:00,79.4,57.5,30.24,NE,52,3.0,13.0,47,0.00,,,0.00,WUHU216DAVISVP2,2013-08-24 19:43:00,
2013-08-24 15:48:00,79.5,56.3,30.24,ESE,102,5.0,13.0,45,0.00,,,0.00,WUHU216DAVISVP2,2013-08-24 19:48:00,
2013-08-24 15:53:00,79.6,57.0,30.24,NNW,335,5.0,13.0,46,0.00,,,0.00,WUHU216DAVISVP2,2013-08-24 19:53:00,
2013-08-24 15:58:00,79.6,57.0,30.24,NE,36,6.0,13.0,46,0.00,,,0.00,WUHU216DAVISVP2,2013-08-24 19:58:00,
2013-08-24 16:03:00,79.4,57.5,30.24,NNE,19,6.0,10.0,47,0.00,,,0.00,WUHU216DAVISVP2,2013-08-24 20:03:00,
2013-08-24 16:08:00,79.5,57.6,30.24,ENE,63,0.0,10.0,47,0.00,,,0.00,WUHU216DAVISVP2,2013-08-24 20:08:00,
2013-08-24 16:13:00,79.6,58.3,30.24,ENE,78,6.0,10.0,48,0.00,,,0.00,WUHU216DAVISVP2,2013-08-24 20:13:00,
2013-08-24 16:18:00,79.9,59.1,30.24,NNW,333,5.0,8.0,49,0.00,,,0.00,WUHU216DAVISVP2,2013-08-24 20:18:00,
2013-08-24 16:24:00,79.9,59.1,30.23,East,88,10.0,10.0,49,0.00,,,0.00,WUHU216DAVISVP2,2013-08-24 20:24:00,
2013-08-24 16:29:00,80.0,56.8,30.23,ESE,105,7.0,10.0,45,0.00,,,0.00,WUHU216DAVISVP2,2013-08-24 20:29:00,
2013-08-24 16:34:00,80.0,58.6,30.23,SSE,152,5.0,10.0,48,0.00,,,0.00,WUHU216DAVISVP2,2013-08-24 20:34:00,
2013-08-24 16:39:00,80.4,59.0,30.23,East,82,7.0,10.0,48,0.00,,,0.00,WUHU216DAVISVP2,2013-08-24 20:39:00,
2013-08-24 16:44:00,80.1,58.7,30.23,NE,55,2.0,10.0,48,0.00,,,0.00,WUHU216DAVISVP2,2013-08-24 20:44:00,
2013-08-24 16:49:00,80.1,57.5,30.23,ENE,78,5.0,10.0,46,0.00,,,0.00,WUHU216DAVISVP2,2013-08-24 20:49:00,
2013-08-24 16:54:00,79.9,57.3,30.23,East,97,1.0,10.0,46,0.00,,,0.00,WUHU216DAVISVP2,2013-08-24 20:54:00,
2013-08-24 16:59:00,79.8,58.4,30.23,ENE,60,5.0,10.0,48,0.00,,,0.00,WUHU216DAVISVP2,2013-08-24 20:59:00,
2013-08-24 17:04:00,80.0,59.8,30.23,SE,134,6.0,10.0,50,0.00,,,0.00,WUHU216DAVISVP2,2013-08-24 21:04:00,
2013-08-24 17:09:00,80.0,57.4,30.23,ESE,121,0.0,9.0,46,0.00,,,0.00,WUHU216DAVISVP2,2013-08-24 21:09:00,
2013-08-24 17:14:00,80.3,58.3,30.23,ESE,105,4.0,9.0,47,0.00,,,0.00,WUHU216DAVISVP2,2013-08-24 21:14:00,
2013-08-24 17:19:00,80.0,59.2,30.22,East,79,1.0,10.0,49,0.00,,,0.00,WUHU216DAVISVP2,2013-08-24 21:19:00,
2013-08-24 17:24:00,79.9,59.1,30.23,ENE,59,4.0,10.0,49,0.00,,,0.00,WUHU216DAVISVP2,2013-08-24 21:24:00,
2013-08-24 17:29:00,79.7,57.7,30.23,ESE,122,6.0,10.0,47,0.00,,,0.00,WUHU216DAVISVP2,2013-08-24 21:29:00,
2013-08-24 17:34:00,79.9,58.5,30.23,ESE,103,5.0,9.0,48,0.00,,,0.00,WUHU216DAVISVP2,2013-08-24 21:34:00,
2013-08-24 17:39:00,79.8,57.8,30.23,East,82,5.0,10.0,47,0.00,,,0.00,WUHU216DAVISVP2,2013-08-24 21:39:00,
2013-08-24 17:44:00,79.6,57.7,30.23,NE,52,4.0,10.0,47,0.00,,,0.00,WUHU216DAVISVP2,2013-08-24 21:44:00,
2013-08-24 17:50:00,79.6,58.3,30.23,NNE,26,4.0,10.0,48,0.00,,,0.00,WUHU216DAVISVP2,2013-08-24 21:50:00,
2013-08-24 17:55:00,79.7,58.3,30.23,ENE,65,2.0,9.0,48,0.00,,,0.00,WUHU216DAVISVP2,2013-08-24 21:55:00,
2013-08-24 18:00:00,79.6,58.3,30.23,East,97,5.0,9.0,48,0.00,,,0.00,WUHU216DAVISVP2,2013-08-24 22:00:00,
2013-08-24 18:05:00,79.5,57.6,30.23,NE,47,4.0,9.0,47,0.00,,,0.00,WUHU216DAVISVP2,2013-08-24 22:05:00,
2013-08-24 18:10:00,79.6,57.7,30.23,East,80,6.0,9.0,47,0.00,,,0.00,WUHU216DAVISVP2,2013-08-24 22:10:00,
2013-08-24 18:15:00,79.4,56.2,30.23,East,92,4.0,9.0,45,0.00,,,0.00,WUHU216DAVISVP2,2013-08-24 22:15:00,
2013-08-24 18:20:00,79.3,57.4,30.23,East,82,4.0,8.0,47,0.00,,,0.00,WUHU216DAVISVP2,2013-08-24 22:20:00,
2013-08-24 18:25:00,79.2,57.9,30.22,East,97,1.0,8.0,48,0.00,,,0.00,WUHU216DAVISVP2,2013-08-24 22:25:00,
2013-08-24 18:30:00,79.2,57.3,30.22,East,88,0.0,8.0,47,0.00,,,0.00,WUHU216DAVISVP2,2013-08-24 22:30:00,
2013-08-24 18:35:00,79.5,57.6,30.22,NE,39,2.0,8.0,47,0.00,,,0.00,WUHU216DAVISVP2,2013-08-24 22:35:00,
2013-08-24 18:40:00,79.5,58.2,30.22,East,94,4.0,8.0,48,0.00,,,0.00,WUHU216DAVISVP2,2013-08-24 22:40:00,
2013-08-24 18:45:00,79.3,58.0,30.22,East,88,3.0,7.0,48,0.00,,,0.00,WUHU216DAVISVP2,2013-08-24 22:45:00,
2013-08-24 18:50:00,79.1,59.0,30.23,East,82,2.0,7.0,50,0.00,,,0.00,WUHU216DAVISVP2,2013-08-24 22:50:00,
2013-08-24 18:55:00,79.1,57.2,30.23,ENE,75,0.0,7.0,47,0.00,,,0.00,WUHU216DAVISVP2,2013-08-24 22:55:00,
2013-08-24 19:00:00,79.0,56.5,30.23,NNE,15,2.0,7.0,46,0.00,,,0.00,WUHU216DAVISVP2,2013-08-24 23:00:00,
2013-08-24 19:06:00,78.9,56.4,30.22,ENE,73,2.0,6.0,46,0.00,,,0.00,WUHU216DAVISVP2,2013-08-24 23:06:00,
2013-08-24 19:11:00,78.8,57.5,30.23,ENE,71,0.0,6.0,48,0.00,,,0.00,WUHU216DAVISVP2,2013-08-24 23:11:00,
2013-08-24 19:16:00,78.6,57.9,30.22,ENE,72,0.0,6.0,49,0.00,,,0.00,WUHU216DAVISVP2,2013-08-24 23:16:00,
2013-08-24 19:21:00,78.3,58.2,30.22,East,88,0.0,6.0,50,0.00,,,0.00,WUHU216DAVISVP2,2013-08-24 23:21:00,
2013-08-24 19:26:00,78.1,58.0,30.22,East,88,2.0,5.0,50,0.00,,,0.00,WUHU216DAVISVP2,2013-08-24 23:26:00,
2013-08-24 19:31:00,77.8,57.8,30.22,East,88,0.0,5.0,50,0.00,,,0.00,WUHU216DAVISVP2,2013-08-24 23:31:00,
2013-08-24 19:36:00,77.5,59.2,30.23,East,88,1.0,4.0,53,0.00,,,0.00,WUHU216DAVISVP2,2013-08-24 23:36:00,
2013-08-24 19:41:00,77.2,57.8,30.23,East,88,0.0,4.0,51,0.00,,,0.00,WUHU216DAVISVP2,2013-08-24 23:41:00,
2013-08-24 19:46:00,76.9,58.1,30.23,ENE,69,1.0,4.0,52,0.00,,,0.00,WUHU216DAVISVP2,2013-08-24 23:46:00,
2013-08-24 19:51:00,76.5,58.2,30.22,ENE,71,0.0,4.0,53,0.00,,,0.00,WUHU216DAVISVP2,2013-08-24 23:51:00,
2013-08-24 19:56:00,76.1,58.9,30.23,ENE,71,0.0,4.0,55,0.00,,,0.00,WUHU216DAVISVP2,2013-08-24 23:56:00,
2013-08-24 20:02:00,75.7,59.6,30.23,NE,48,0.0,4.0,57,0.00,,,0.00,WUHU216DAVISVP2,2013-08-25 00:02:00,
2013-08-24 20:07:00,75.2,59.1,30.23,ENE,65,0.0,4.0,57,0.00,,,0.00,WUHU216DAVISVP2,2013-08-25 00:07:00,
2013-08-24 20:12:00,74.7,59.6,30.23,East,80,2.0,5.0,59,0.00,,,0.00,WUHU216DAVISVP2,2013-08-25 00:12:00,
2013-08-24 20:17:00,74.1,60.0,30.23,East,80,0.0,5.0,61,0.00,,,0.00,WUHU216DAVISVP2,2013-08-25 00:17:00,
2013-08-24 20:22:00,73.5,59.9,30.23,ENE,71,0.0,5.0,62,0.00,,,0.00,WUHU216DAVISVP2,2013-08-25 00:22:00,
2013-08-24 20:27:00,73.0,60.3,30.23,ENE,71,0.0,5.0,64,0.00,,,0.00,WUHU216DAVISVP2,2013-08-25 00:27:00,
2013-08-24 20:32:00,72.2,60.0,30.23,ENE,71,0.0,5.0,65,0.00,,,0.00,WUHU216DAVISVP2,2013-08-25 00:32:00,
2013-08-24 20:37:00,71.5,60.6,30.23,ENE,71,0.0,5.0,68,0.00,,,0.00,WUHU216DAVISVP2,2013-08-25 00:37:00,
2013-08-24 20:42:00,71.0,60.5,30.23,ENE,71,0.0,2.0,69,0.00,,,0.00,WUHU216DAVISVP2,2013-08-25 00:42:00,
2013-08-24 20:47:00,70.7,60.2,30.23,ENE,71,0.0,2.0,69,0.00,,,0.00,WUHU216DAVISVP2,2013-08-25 00:47:00,
2013-08-24 20:52:00,70.7,60.2,30.23,ENE,71,0.0,1.0,69,0.00,,,0.00,WUHU216DAVISVP2,2013-08-25 00:52:00,
2013-08-24 20:57:00,70.4,60.5,30.23,ENE,71,0.0,1.0,71,0.00,,,0.00,WUHU216DAVISVP2,2013-08-25 00:57:00,
2013-08-24 21:02:00,69.9,60.1,30.24,ENE,71,0.0,1.0,71,0.00,,,0.00,WUHU216DAVISVP2,2013-08-25 01:02:00,
2013-08-24 21:07:00,69.8,60.0,30.24,ENE,71,0.0,1.0,71,0.00,,,0.00,WUHU216DAVISVP2,2013-08-25 01:07:00,
2013-08-24 21:12:00,69.5,60.2,30.24,ENE,71,0.0,1.0,72,0.00,,,0.00,WUHU216DAVISVP2,2013-08-25 01:12:00,
2013-08-24 21:18:00,69.1,59.9,30.24,ENE,71,0.0,1.0,72,0.00,,,0.00,WUHU216DAVISVP2,2013-08-25 01:18:00,
2013-08-24 21:23:00,68.9,59.7,30.24,ENE,71,0.0,1.0,72,0.00,,,0.00,WUHU216DAVISVP2,2013-08-25 01:23:00,
2013-08-24 21:28:00,68.8,59.9,30.25,NNW,346,0.0,2.0,73,0.00,,,0.00,WUHU216DAVISVP2,2013-08-25 01:28:00,
2013-08-24 21:33:00,68.8,59.9,30.25,WNW,301,0.0,4.0,73,0.00,,,0.00,WUHU216DAVISVP2,2013-08-25 01:33:00,
2013-08-24 21:38:00,68.8,59.9,30.25,NNE,28,1.0,4.0,73,0.00,,,0.00,WUHU216DAVISVP2,2013-08-25 01:38:00,
2013-08-24 21:43:00,68.7,59.7,30.25,ENE,59,0.0,5.0,73,0.00,,,0.00,WUHU216DAVISVP2,2013-08-25 01:43:00,
2013-08-24 21:48:00,68.5,60.0,30.25,East,91,0.0,5.0,74,0.00,,,0.00,WUHU216DAVISVP2,2013-08-25 01:48:00,
2013-08-24 21:53:00,68.2,60.0,30.25,East,98,2.0,5.0,75,0.00,,,0.00,WUHU216DAVISVP2,2013-08-25 01:53:00,
2013-08-24 21:58:00,67.8,59.7,30.25,East,82,2.0,6.0,75,0.00,,,0.00,WUHU216DAVISVP2,2013-08-25 01:58:00,
2013-08-24 22:03:00,67.5,59.8,30.25,East,90,1.0,6.0,76,0.00,,,0.00,WUHU216DAVISVP2,2013-08-25 02:03:00,
2013-08-24 22:08:00,67.3,59.9,30.25,East,92,1.0,6.0,77,0.00,,,0.00,WUHU216DAVISVP2,2013-08-25 02:08:00,
2013-08-24 22:13:00,67.1,59.8,30.25,East,84,1.0,6.0,77,0.00,,,0.00,WUHU216DAVISVP2,2013-08-25 02:13:00,
2013-08-24 22:18:00,66.9,59.8,30.25,East,82,1.0,8.0,78,0.00,,,0.00,WUHU216DAVISVP2,2013-08-25 02:18:00,
2013-08-24 22:23:00,66.8,59.7,30.25,ENE,73,0.0,8.0,78,0.00,,,0.00,WUHU216DAVISVP2,2013-08-25 02:23:00,
2013-08-24 22:28:00,66.6,59.6,30.25,ESE,105,0.0,8.0,78,0.00,,,0.00,WUHU216DAVISVP2,2013-08-25 02:28:00,
2013-08-24 22:33:00,66.5,59.8,30.25,East,86,0.0,8.0,79,0.00,,,0.00,WUHU216DAVISVP2,2013-08-25 02:33:00,
2013-08-24 22:39:00,66.2,59.6,30.25,ENE,77,0.0,5.0,79,0.00,,,0.00,WUHU216DAVISVP2,2013-08-25 02:39:00,
2013-08-24 22:44:00,66.1,59.8,30.25,ENE,76,0.0,5.0,80,0.00,,,0.00,WUHU216DAVISVP2,2013-08-25 02:44:00,
2013-08-24 22:49:00,65.8,59.2,30.25,ENE,76,0.0,5.0,79,0.00,,,0.00,WUHU216DAVISVP2,2013-08-25 02:49:00,
2013-08-24 22:54:00,65.4,59.1,30.25,ENE,76,0.0,5.0,80,0.00,,,0.00,WUHU216DAVISVP2,2013-08-25 02:54:00,
2013-08-24 22:59:00,65.1,59.2,30.25,ENE,76,1.0,2.0,81,0.00,,,0.00,WUHU216DAVISVP2,2013-08-25 02:59:00,
2013-08-24 23:04:00,65.0,59.4,30.25,ENE,76,0.0,1.0,82,0.00,,,0.00,WUHU216DAVISVP2,2013-08-25 03:04:00,
2013-08-24 23:09:00,64.6,59.0,30.25,ENE,76,0.0,1.0,82,0.00,,,0.00,WUHU216DAVISVP2,2013-08-25 03:09:00,
2013-08-24 23:14:00,64.3,59.0,30.25,ENE,76,0.0,1.0,83,0.00,,,0.00,WUHU216DAVISVP2,2013-08-25 03:14:00,
2013-08-24 23:19:00,64.0,59.1,30.25,ENE,76,0.0,5.0,84,0.00,,,0.00,WUHU216DAVISVP2,2013-08-25 03:19:00,
2013-08-24 23:24:00,63.8,59.2,30.25,ENE,76,0.0,5.0,85,0.00,,,0.00,WUHU216DAVISVP2,2013-08-25 03:24:00,
2013-08-24 23:29:00,63.6,59.0,30.25,ENE,76,0.0,5.0,85,0.00,,,0.00,WUHU216DAVISVP2,2013-08-25 03:29:00,
2013-08-24 23:34:00,63.7,58.8,30.25,ENE,76,0.0,2.0,84,0.00,,,0.00,WUHU216DAVISVP2,2013-08-25 03:34:00,
2013-08-24 23:39:00,63.6,59.0,30.25,ENE,76,0.0,2.0,85,0.00,,,0.00,WUHU216DAVISVP2,2013-08-25 03:39:00,
2013-08-24 23:44:00,63.4,59.1,30.25,ENE,76,0.0,4.0,86,0.00,,,0.00,WUHU216DAVISVP2,2013-08-25 03:44:00,
2013-08-24 23:49:00,63.3,59.0,30.25,ENE,76,0.0,4.0,86,0.00,,,0.00,WUHU216DAVISVP2,2013-08-25 03:49:00,
2013-08-24 23:55:00,63.3,58.7,30.25,ENE,76,2.0,4.0,85,0.00,,,0.00,WUHU216DAVISVP2,2013-08-25 03:55:00,